sensor_id;sensor_type;location;lat;lon;timestamp;temperature;humidity
22469;DHT22;11401;50.792;4.352;2022-12-10T00:01:10;11.50;57.50
22469;DHT22;11401;50.792;4.352;2022-12-10T00:03:37;11.40;57.10
22469;DHT22;11401;50.792;4.352;2022-12-10T00:06:06;11.30;57.50
22469;DHT22;11401;50.792;4.352;2022-12-10T00:08:34;11.30;57.30
22469;DHT22;11401;50.792;4.352;2022-12-10T00:11:06;11.30;57.00
22469;DHT22;11401;50.792;4.352;2022-12-10T00:13:35;11.40;57.40
22469;DHT22;11401;50.792;4.352;2022-12-10T00:16:03;11.40;57.10
22469;DHT22;11401;50.792;4.352;2022-12-10T00:18:31;11.40;57.40
22469;DHT22;11401;50.792;4.352;2022-12-10T00:21:01;11.30;56.60
22469;DHT22;11401;50.792;4.352;2022-12-10T00:23:28;11.30;57.10
22469;DHT22;11401;50.792;4.352;2022-12-10T00:26:04;11.40;57.00
22469;DHT22;11401;50.792;4.352;2022-12-10T00:28:32;11.20;56.80
22469;DHT22;11401;50.792;4.352;2022-12-10T00:31:07;11.10;57.30
22469;DHT22;11401;50.792;4.352;2022-12-10T00:33:35;11.20;57.70
22469;DHT22;11401;50.792;4.352;2022-12-10T00:36:04;11.40;58.40
22469;DHT22;11401;50.792;4.352;2022-12-10T00:38:32;11.60;57.00
22469;DHT22;11401;50.792;4.352;2022-12-10T00:40:59;11.50;56.10
22469;DHT22;11401;50.792;4.352;2022-12-10T00:43:26;11.30;56.40
22469;DHT22;11401;50.792;4.352;2022-12-10T00:45:53;11.20;56.50
22469;DHT22;11401;50.792;4.352;2022-12-10T00:48:21;11.10;57.10
22469;DHT22;11401;50.792;4.352;2022-12-10T00:51:24;11.10;57.50
22469;DHT22;11401;50.792;4.352;2022-12-10T00:53:53;11.10;57.30
22469;DHT22;11401;50.792;4.352;2022-12-10T00:56:26;11.10;57.30
22469;DHT22;11401;50.792;4.352;2022-12-10T00:58:54;11.00;57.00
22469;DHT22;11401;50.792;4.352;2022-12-10T01:01:23;10.90;57.00
22469;DHT22;11401;50.792;4.352;2022-12-10T01:03:53;10.90;58.00
22469;DHT22;11401;50.792;4.352;2022-12-10T01:06:35;11.00;57.80
22469;DHT22;11401;50.792;4.352;2022-12-10T01:09:05;11.10;57.70
22469;DHT22;11401;50.792;4.352;2022-12-10T01:11:36;11.10;57.30
22469;DHT22;11401;50.792;4.352;2022-12-10T01:14:09;11.10;57.20
22469;DHT22;11401;50.792;4.352;2022-12-10T01:16:37;11.00;57.50
22469;DHT22;11401;50.792;4.352;2022-12-10T01:19:05;11.00;57.50
22469;DHT22;11401;50.792;4.352;2022-12-10T01:21:34;11.10;57.70
22469;DHT22;11401;50.792;4.352;2022-12-10T01:24:01;11.10;57.40
22469;DHT22;11401;50.792;4.352;2022-12-10T01:26:31;11.10;57.60
22469;DHT22;11401;50.792;4.352;2022-12-10T01:29:00;11.20;57.40
22469;DHT22;11401;50.792;4.352;2022-12-10T01:31:30;11.20;57.60
22469;DHT22;11401;50.792;4.352;2022-12-10T01:33:58;11.20;57.30
22469;DHT22;11401;50.792;4.352;2022-12-10T01:36:34;11.20;57.20
22469;DHT22;11401;50.792;4.352;2022-12-10T01:39:04;11.20;57.70
22469;DHT22;11401;50.792;4.352;2022-12-10T01:41:35;11.40;57.10
22469;DHT22;11401;50.792;4.352;2022-12-10T01:46:37;11.60;56.80
22469;DHT22;11401;50.792;4.352;2022-12-10T01:49:06;11.70;56.10
22469;DHT22;11401;50.792;4.352;2022-12-10T01:51:37;11.70;56.20
22469;DHT22;11401;50.792;4.352;2022-12-10T01:54:08;11.60;56.10
22469;DHT22;11401;50.792;4.352;2022-12-10T01:56:38;11.60;56.70
22469;DHT22;11401;50.792;4.352;2022-12-10T01:59:05;11.60;56.20
22469;DHT22;11401;50.792;4.352;2022-12-10T02:01:44;11.60;56.60
22469;DHT22;11401;50.792;4.352;2022-12-10T02:06:48;11.50;56.20
22469;DHT22;11401;50.792;4.352;2022-12-10T02:09:32;11.40;57.10
22469;DHT22;11401;50.792;4.352;2022-12-10T02:14:58;11.50;57.80
22469;DHT22;11401;50.792;4.352;2022-12-10T02:17:32;11.60;57.80
22469;DHT22;11401;50.792;4.352;2022-12-10T02:20:13;11.70;56.90
22469;DHT22;11401;50.792;4.352;2022-12-10T02:22:57;11.60;56.10
22469;DHT22;11401;50.792;4.352;2022-12-10T02:25:33;11.50;56.50
22469;DHT22;11401;50.792;4.352;2022-12-10T02:28:22;11.50;57.30
22469;DHT22;11401;50.792;4.352;2022-12-10T02:30:53;11.50;56.40
22469;DHT22;11401;50.792;4.352;2022-12-10T02:33:21;11.60;57.70
22469;DHT22;11401;50.792;4.352;2022-12-10T02:35:51;11.70;56.70
22469;DHT22;11401;50.792;4.352;2022-12-10T02:38:27;11.70;56.30
22469;DHT22;11401;50.792;4.352;2022-12-10T02:41:02;11.60;55.60
22469;DHT22;11401;50.792;4.352;2022-12-10T02:43:33;11.60;56.60
22469;DHT22;11401;50.792;4.352;2022-12-10T02:46:03;11.60;56.90
22469;DHT22;11401;50.792;4.352;2022-12-10T02:48:32;11.60;56.90
22469;DHT22;11401;50.792;4.352;2022-12-10T02:50:59;11.60;57.10
22469;DHT22;11401;50.792;4.352;2022-12-10T02:53:26;11.60;57.00
22469;DHT22;11401;50.792;4.352;2022-12-10T03:07:57;11.70;56.70
22469;DHT22;11401;50.792;4.352;2022-12-10T03:10:29;11.80;57.00
22469;DHT22;11401;50.792;4.352;2022-12-10T03:13:00;11.80;56.50
22469;DHT22;11401;50.792;4.352;2022-12-10T03:15:30;11.70;56.70
22469;DHT22;11401;50.792;4.352;2022-12-10T03:18:00;11.70;56.90
22469;DHT22;11401;50.792;4.352;2022-12-10T03:20:28;11.70;57.20
22469;DHT22;11401;50.792;4.352;2022-12-10T03:22:56;11.80;56.80
22469;DHT22;11401;50.792;4.352;2022-12-10T03:25:26;11.80;57.10
22469;DHT22;11401;50.792;4.352;2022-12-10T03:27:55;11.80;56.90
22469;DHT22;11401;50.792;4.352;2022-12-10T03:30:24;11.90;56.40
22469;DHT22;11401;50.792;4.352;2022-12-10T03:32:52;11.80;56.40
22469;DHT22;11401;50.792;4.352;2022-12-10T03:35:22;11.70;56.70
22469;DHT22;11401;50.792;4.352;2022-12-10T03:37:50;11.70;57.00
22469;DHT22;11401;50.792;4.352;2022-12-10T03:40:21;11.70;57.00
22469;DHT22;11401;50.792;4.352;2022-12-10T03:42:48;11.80;57.50
22469;DHT22;11401;50.792;4.352;2022-12-10T03:45:15;11.90;57.00
22469;DHT22;11401;50.792;4.352;2022-12-10T03:47:42;12.00;56.90
22469;DHT22;11401;50.792;4.352;2022-12-10T03:50:10;12.00;56.10
22469;DHT22;11401;50.792;4.352;2022-12-10T03:52:37;11.90;55.90
22469;DHT22;11401;50.792;4.352;2022-12-10T03:55:05;11.80;56.60
22469;DHT22;11401;50.792;4.352;2022-12-10T03:57:34;11.70;56.60
22469;DHT22;11401;50.792;4.352;2022-12-10T04:00:01;11.80;57.90
22469;DHT22;11401;50.792;4.352;2022-12-10T04:02:37;11.70;56.20
22469;DHT22;11401;50.792;4.352;2022-12-10T04:05:05;11.60;56.70
22469;DHT22;11401;50.792;4.352;2022-12-10T04:07:33;11.60;57.60
22469;DHT22;11401;50.792;4.352;2022-12-10T04:10:03;11.70;57.00
22469;DHT22;11401;50.792;4.352;2022-12-10T04:12:30;11.70;56.90
22469;DHT22;11401;50.792;4.352;2022-12-10T04:14:57;11.70;57.30
22469;DHT22;11401;50.792;4.352;2022-12-10T04:17:42;11.80;56.80
22469;DHT22;11401;50.792;4.352;2022-12-10T04:20:09;11.80;56.80
22469;DHT22;11401;50.792;4.352;2022-12-10T04:22:56;11.90;56.80
22469;DHT22;11401;50.792;4.352;2022-12-10T04:25:42;11.90;56.20
22469;DHT22;11401;50.792;4.352;2022-12-10T04:28:28;11.90;56.10
22469;DHT22;11401;50.792;4.352;2022-12-10T04:30:55;11.90;56.70
22469;DHT22;11401;50.792;4.352;2022-12-10T04:33:22;11.90;56.50
22469;DHT22;11401;50.792;4.352;2022-12-10T04:35:49;11.80;56.80
22469;DHT22;11401;50.792;4.352;2022-12-10T04:38:16;11.80;56.80
22469;DHT22;11401;50.792;4.352;2022-12-10T04:40:43;11.80;57.00
22469;DHT22;11401;50.792;4.352;2022-12-10T04:43:10;11.80;56.60
22469;DHT22;11401;50.792;4.352;2022-12-10T04:45:37;11.80;57.10
22469;DHT22;11401;50.792;4.352;2022-12-10T04:48:05;11.90;57.40
22469;DHT22;11401;50.792;4.352;2022-12-10T04:50:32;12.00;56.60
22469;DHT22;11401;50.792;4.352;2022-12-10T04:52:59;12.00;56.90
22469;DHT22;11401;50.792;4.352;2022-12-10T04:55:26;12.10;56.50
22469;DHT22;11401;50.792;4.352;2022-12-10T04:57:53;12.20;56.00
22469;DHT22;11401;50.792;4.352;2022-12-10T05:00:20;12.10;55.70
22469;DHT22;11401;50.792;4.352;2022-12-10T05:02:50;12.00;55.40
22469;DHT22;11401;50.792;4.352;2022-12-10T05:05:17;12.00;55.80
22469;DHT22;11401;50.792;4.352;2022-12-10T05:07:44;12.00;56.70
22469;DHT22;11401;50.792;4.352;2022-12-10T05:10:11;12.10;56.40
22469;DHT22;11401;50.792;4.352;2022-12-10T05:12:38;12.00;56.00
22469;DHT22;11401;50.792;4.352;2022-12-10T05:15:05;12.00;56.40
22469;DHT22;11401;50.792;4.352;2022-12-10T05:17:35;12.10;56.30
22469;DHT22;11401;50.792;4.352;2022-12-10T05:20:03;12.00;56.60
22469;DHT22;11401;50.792;4.352;2022-12-10T05:22:30;11.90;56.00
22469;DHT22;11401;50.792;4.352;2022-12-10T05:25:15;11.90;56.50
22469;DHT22;11401;50.792;4.352;2022-12-10T05:27:43;11.90;56.40
22469;DHT22;11401;50.792;4.352;2022-12-10T05:30:10;12.00;56.40
22469;DHT22;11401;50.792;4.352;2022-12-10T05:32:37;12.00;56.30
22469;DHT22;11401;50.792;4.352;2022-12-10T05:35:05;11.90;56.30
22469;DHT22;11401;50.792;4.352;2022-12-10T05:37:32;11.80;56.50
22469;DHT22;11401;50.792;4.352;2022-12-10T05:39:59;11.80;56.90
22469;DHT22;11401;50.792;4.352;2022-12-10T05:42:26;11.90;56.70
22469;DHT22;11401;50.792;4.352;2022-12-10T05:44:53;11.90;56.50
22469;DHT22;11401;50.792;4.352;2022-12-10T05:47:20;11.90;56.30
22469;DHT22;11401;50.792;4.352;2022-12-10T05:49:46;11.80;56.60
22469;DHT22;11401;50.792;4.352;2022-12-10T05:52:18;11.90;56.80
22469;DHT22;11401;50.792;4.352;2022-12-10T05:54:45;11.90;56.30
22469;DHT22;11401;50.792;4.352;2022-12-10T05:57:12;11.90;56.70
22469;DHT22;11401;50.792;4.352;2022-12-10T05:59:39;11.90;56.50
22469;DHT22;11401;50.792;4.352;2022-12-10T06:02:06;11.90;56.30
22469;DHT22;11401;50.792;4.352;2022-12-10T06:04:33;11.80;56.20
22469;DHT22;11401;50.792;4.352;2022-12-10T06:07:00;11.80;56.50
22469;DHT22;11401;50.792;4.352;2022-12-10T06:09:35;11.90;56.60
22469;DHT22;11401;50.792;4.352;2022-12-10T06:12:02;11.80;56.30
22469;DHT22;11401;50.792;4.352;2022-12-10T06:14:29;11.80;57.10
22469;DHT22;11401;50.792;4.352;2022-12-10T06:16:55;11.90;56.70
22469;DHT22;11401;50.792;4.352;2022-12-10T06:19:22;11.80;57.40
22469;DHT22;11401;50.792;4.352;2022-12-10T06:21:49;11.90;56.80
22469;DHT22;11401;50.792;4.352;2022-12-10T06:24:16;11.80;56.30
22469;DHT22;11401;50.792;4.352;2022-12-10T06:26:43;11.80;57.30
22469;DHT22;11401;50.792;4.352;2022-12-10T06:29:10;11.70;56.40
22469;DHT22;11401;50.792;4.352;2022-12-10T06:31:37;11.70;56.90
22469;DHT22;11401;50.792;4.352;2022-12-10T06:34:04;11.70;56.80
22469;DHT22;11401;50.792;4.352;2022-12-10T06:36:31;11.70;57.20
22469;DHT22;11401;50.792;4.352;2022-12-10T06:38:58;11.80;57.00
22469;DHT22;11401;50.792;4.352;2022-12-10T06:41:25;11.80;56.80
22469;DHT22;11401;50.792;4.352;2022-12-10T06:43:52;11.90;56.60
22469;DHT22;11401;50.792;4.352;2022-12-10T06:46:20;12.00;56.90
22469;DHT22;11401;50.792;4.352;2022-12-10T06:48:48;12.00;56.00
22469;DHT22;11401;50.792;4.352;2022-12-10T06:51:15;11.90;55.80
22469;DHT22;11401;50.792;4.352;2022-12-10T06:53:44;11.90;56.60
22469;DHT22;11401;50.792;4.352;2022-12-10T06:56:14;11.90;56.30
22469;DHT22;11401;50.792;4.352;2022-12-10T06:58:41;11.90;55.80
22469;DHT22;11401;50.792;4.352;2022-12-10T07:01:14;12.00;56.70
22469;DHT22;11401;50.792;4.352;2022-12-10T07:03:42;12.00;56.30
22469;DHT22;11401;50.792;4.352;2022-12-10T07:06:10;12.00;55.90
22469;DHT22;11401;50.792;4.352;2022-12-10T07:08:38;12.00;56.00
22469;DHT22;11401;50.792;4.352;2022-12-10T07:11:07;12.00;56.00
22469;DHT22;11401;50.792;4.352;2022-12-10T07:13:35;11.90;56.30
22469;DHT22;11401;50.792;4.352;2022-12-10T07:16:02;11.90;56.00
22469;DHT22;11401;50.792;4.352;2022-12-10T07:18:29;11.90;56.20
22469;DHT22;11401;50.792;4.352;2022-12-10T07:20:56;12.00;56.40
22469;DHT22;11401;50.792;4.352;2022-12-10T07:23:23;11.90;56.30
22469;DHT22;11401;50.792;4.352;2022-12-10T07:25:50;11.90;55.70
22469;DHT22;11401;50.792;4.352;2022-12-10T07:28:17;12.00;56.20
22469;DHT22;11401;50.792;4.352;2022-12-10T07:30:44;12.00;56.20
22469;DHT22;11401;50.792;4.352;2022-12-10T07:33:11;12.00;56.10
22469;DHT22;11401;50.792;4.352;2022-12-10T07:35:39;12.00;56.30
22469;DHT22;11401;50.792;4.352;2022-12-10T07:38:14;11.90;56.00
22469;DHT22;11401;50.792;4.352;2022-12-10T07:40:41;11.90;56.20
22469;DHT22;11401;50.792;4.352;2022-12-10T07:43:08;11.90;56.10
22469;DHT22;11401;50.792;4.352;2022-12-10T07:45:35;11.90;56.00
22469;DHT22;11401;50.792;4.352;2022-12-10T07:48:02;11.90;55.80
22469;DHT22;11401;50.792;4.352;2022-12-10T07:50:29;11.80;55.80
22469;DHT22;11401;50.792;4.352;2022-12-10T07:52:56;11.80;56.20
22469;DHT22;11401;50.792;4.352;2022-12-10T07:55:23;11.80;56.30
22469;DHT22;11401;50.792;4.352;2022-12-10T07:57:50;11.90;56.80
22469;DHT22;11401;50.792;4.352;2022-12-10T08:00:17;11.90;56.40
22469;DHT22;11401;50.792;4.352;2022-12-10T08:02:44;11.90;55.40
22469;DHT22;11401;50.792;4.352;2022-12-10T08:05:11;11.70;55.30
22469;DHT22;11401;50.792;4.352;2022-12-10T08:07:38;11.60;56.60
22469;DHT22;11401;50.792;4.352;2022-12-10T08:10:05;11.40;56.00
22469;DHT22;11401;50.792;4.352;2022-12-10T08:12:33;11.40;57.00
22469;DHT22;11401;50.792;4.352;2022-12-10T08:15:00;11.30;57.00
22469;DHT22;11401;50.792;4.352;2022-12-10T08:17:29;11.40;57.60
22469;DHT22;11401;50.792;4.352;2022-12-10T08:19:55;11.40;56.60
22469;DHT22;11401;50.792;4.352;2022-12-10T08:22:22;11.40;56.90
22469;DHT22;11401;50.792;4.352;2022-12-10T08:24:49;11.30;56.90
22469;DHT22;11401;50.792;4.352;2022-12-10T08:27:16;11.20;56.90
22469;DHT22;11401;50.792;4.352;2022-12-10T08:29:43;11.30;57.10
22469;DHT22;11401;50.792;4.352;2022-12-10T08:32:10;11.20;57.10
22469;DHT22;11401;50.792;4.352;2022-12-10T08:34:37;11.20;56.50
22469;DHT22;11401;50.792;4.352;2022-12-10T08:37:04;11.20;56.10
22469;DHT22;11401;50.792;4.352;2022-12-10T08:39:37;11.10;57.00
22469;DHT22;11401;50.792;4.352;2022-12-10T08:42:04;11.10;56.60
22469;DHT22;11401;50.792;4.352;2022-12-10T08:44:31;11.00;57.00
22469;DHT22;11401;50.792;4.352;2022-12-10T08:46:58;10.90;56.80
22469;DHT22;11401;50.792;4.352;2022-12-10T08:49:25;10.90;57.00
22469;DHT22;11401;50.792;4.352;2022-12-10T08:51:52;10.80;57.10
22469;DHT22;11401;50.792;4.352;2022-12-10T08:54:19;10.80;57.00
22469;DHT22;11401;50.792;4.352;2022-12-10T08:56:46;10.70;57.30
22469;DHT22;11401;50.792;4.352;2022-12-10T08:59:13;10.70;57.60
22469;DHT22;11401;50.792;4.352;2022-12-10T09:01:40;10.70;57.80
22469;DHT22;11401;50.792;4.352;2022-12-10T09:04:07;10.70;57.90
22469;DHT22;11401;50.792;4.352;2022-12-10T09:06:35;10.80;57.90
22469;DHT22;11401;50.792;4.352;2022-12-10T09:09:02;10.90;57.60
22469;DHT22;11401;50.792;4.352;2022-12-10T09:11:32;11.10;58.10
22469;DHT22;11401;50.792;4.352;2022-12-10T09:13:59;11.00;56.90
22469;DHT22;11401;50.792;4.352;2022-12-10T09:16:32;11.00;56.80
22469;DHT22;11401;50.792;4.352;2022-12-10T09:19:01;10.80;56.80
22469;DHT22;11401;50.792;4.352;2022-12-10T09:21:28;10.90;57.10
22469;DHT22;11401;50.792;4.352;2022-12-10T09:23:57;10.80;57.50
22469;DHT22;11401;50.792;4.352;2022-12-10T09:26:24;10.80;56.50
22469;DHT22;11401;50.792;4.352;2022-12-10T09:28:52;10.60;54.60
22469;DHT22;11401;50.792;4.352;2022-12-10T09:31:20;10.30;55.80
22469;DHT22;11401;50.792;4.352;2022-12-10T09:33:49;10.10;56.90
22469;DHT22;11401;50.792;4.352;2022-12-10T09:36:17;10.30;57.80
22469;DHT22;11401;50.792;4.352;2022-12-10T09:38:44;10.50;57.20
22469;DHT22;11401;50.792;4.352;2022-12-10T09:49:37;11.50;56.50
22469;DHT22;11401;50.792;4.352;2022-12-10T09:52:11;11.50;55.20
22469;DHT22;11401;50.792;4.352;2022-12-10T09:54:50;11.50;55.60
22469;DHT22;11401;50.792;4.352;2022-12-10T09:57:31;11.70;56.30
22469;DHT22;11401;50.792;4.352;2022-12-10T10:00:06;11.80;55.50
22469;DHT22;11401;50.792;4.352;2022-12-10T10:02:37;11.90;56.10
22469;DHT22;11401;50.792;4.352;2022-12-10T10:07:38;11.90;56.10
22469;DHT22;11401;50.792;4.352;2022-12-10T10:10:29;12.00;55.80
22469;DHT22;11401;50.792;4.352;2022-12-10T10:15:36;12.10;54.80
22469;DHT22;11401;50.792;4.352;2022-12-10T10:20:51;12.20;54.40
22469;DHT22;11401;50.792;4.352;2022-12-10T10:23:18;12.20;54.40
22469;DHT22;11401;50.792;4.352;2022-12-10T10:25:46;12.10;54.20
22469;DHT22;11401;50.792;4.352;2022-12-10T10:28:22;12.20;55.00
22469;DHT22;11401;50.792;4.352;2022-12-10T10:30:50;12.50;55.40
22469;DHT22;11401;50.792;4.352;2022-12-10T10:33:19;12.50;54.10
22469;DHT22;11401;50.792;4.352;2022-12-10T10:36:04;12.60;54.00
22469;DHT22;11401;50.792;4.352;2022-12-10T10:38:37;12.60;53.60
22469;DHT22;11401;50.792;4.352;2022-12-10T10:41:04;12.50;54.10
22469;DHT22;11401;50.792;4.352;2022-12-10T10:43:39;12.50;54.60
22469;DHT22;11401;50.792;4.352;2022-12-10T10:46:13;12.50;55.00
22469;DHT22;11401;50.792;4.352;2022-12-10T10:48:41;12.50;53.50
22469;DHT22;11401;50.792;4.352;2022-12-10T10:53:53;12.60;54.00
22469;DHT22;11401;50.792;4.352;2022-12-10T10:56:23;12.60;54.40
22469;DHT22;11401;50.792;4.352;2022-12-10T10:59:02;12.60;54.20
22469;DHT22;11401;50.792;4.352;2022-12-10T11:04:27;12.50;54.20
22469;DHT22;11401;50.792;4.352;2022-12-10T11:06:56;12.60;55.00
22469;DHT22;11401;50.792;4.352;2022-12-10T11:09:33;12.60;54.30
22469;DHT22;11401;50.792;4.352;2022-12-10T11:12:06;12.70;54.50
22469;DHT22;11401;50.792;4.352;2022-12-10T11:14:39;12.70;54.40
22469;DHT22;11401;50.792;4.352;2022-12-10T11:17:17;12.80;54.00
22469;DHT22;11401;50.792;4.352;2022-12-10T11:24:52;12.90;53.30
22469;DHT22;11401;50.792;4.352;2022-12-10T11:27:29;12.90;53.50
22469;DHT22;11401;50.792;4.352;2022-12-10T11:30:09;12.90;53.50
22469;DHT22;11401;50.792;4.352;2022-12-10T11:38:37;12.90;53.30
22469;DHT22;11401;50.792;4.352;2022-12-10T11:41:30;13.00;54.10
22469;DHT22;11401;50.792;4.352;2022-12-10T11:44:25;13.00;53.20
22469;DHT22;11401;50.792;4.352;2022-12-10T11:47:18;13.00;53.00
22469;DHT22;11401;50.792;4.352;2022-12-10T11:52:54;12.90;53.80
22469;DHT22;11401;50.792;4.352;2022-12-10T12:04:22;13.00;52.80
22469;DHT22;11401;50.792;4.352;2022-12-10T12:09:59;13.10;52.30
22469;DHT22;11401;50.792;4.352;2022-12-10T12:15:49;12.90;52.80
22469;DHT22;11401;50.792;4.352;2022-12-10T12:18:35;12.90;53.20
22469;DHT22;11401;50.792;4.352;2022-12-10T12:21:07;13.00;53.20
22469;DHT22;11401;50.792;4.352;2022-12-10T12:26:32;13.00;52.30
22469;DHT22;11401;50.792;4.352;2022-12-10T12:29:23;13.10;52.70
22469;DHT22;11401;50.792;4.352;2022-12-10T12:31:59;13.10;53.00
22469;DHT22;11401;50.792;4.352;2022-12-10T12:34:56;13.00;52.80
22469;DHT22;11401;50.792;4.352;2022-12-10T12:37:36;13.00;53.20
22469;DHT22;11401;50.792;4.352;2022-12-10T12:42:53;12.90;53.20
22469;DHT22;11401;50.792;4.352;2022-12-10T12:45:39;13.00;53.30
22469;DHT22;11401;50.792;4.352;2022-12-10T12:50:51;13.10;53.10
22469;DHT22;11401;50.792;4.352;2022-12-10T12:53:21;13.10;52.80
22469;DHT22;11401;50.792;4.352;2022-12-10T13:03:58;13.00;52.60
22469;DHT22;11401;50.792;4.352;2022-12-10T13:06:29;13.00;53.40
22469;DHT22;11401;50.792;4.352;2022-12-10T13:09:16;13.00;53.60
22469;DHT22;11401;50.792;4.352;2022-12-10T13:15:17;12.90;53.10
22469;DHT22;11401;50.792;4.352;2022-12-10T13:20:50;12.90;53.40
22469;DHT22;11401;50.792;4.352;2022-12-10T13:34:20;13.20;53.10
22469;DHT22;11401;50.792;4.352;2022-12-10T13:45:04;13.10;53.60
22469;DHT22;11401;50.792;4.352;2022-12-10T13:53:40;13.10;53.10
22469;DHT22;11401;50.792;4.352;2022-12-10T13:56:27;13.20;53.10
22469;DHT22;11401;50.792;4.352;2022-12-10T14:02:30;13.20;52.70
22469;DHT22;11401;50.792;4.352;2022-12-10T14:05:08;13.20;52.80
22469;DHT22;11401;50.792;4.352;2022-12-10T14:07:44;13.20;53.50
22469;DHT22;11401;50.792;4.352;2022-12-10T14:10:16;13.30;52.90
22469;DHT22;11401;50.792;4.352;2022-12-10T14:12:44;13.20;52.80
22469;DHT22;11401;50.792;4.352;2022-12-10T14:15:20;13.20;52.40
22469;DHT22;11401;50.792;4.352;2022-12-10T14:17:59;13.20;52.40
22469;DHT22;11401;50.792;4.352;2022-12-10T14:20:30;13.20;53.00
22469;DHT22;11401;50.792;4.352;2022-12-10T14:23:03;13.20;53.40
22469;DHT22;11401;50.792;4.352;2022-12-10T14:25:51;13.30;52.60
22469;DHT22;11401;50.792;4.352;2022-12-10T14:28:18;13.30;52.20
22469;DHT22;11401;50.792;4.352;2022-12-10T14:30:48;13.40;53.00
22469;DHT22;11401;50.792;4.352;2022-12-10T14:33:19;13.30;52.30
22469;DHT22;11401;50.792;4.352;2022-12-10T14:35:51;13.30;53.00
22469;DHT22;11401;50.792;4.352;2022-12-10T14:38:30;13.30;52.70
22469;DHT22;11401;50.792;4.352;2022-12-10T14:41:00;13.30;53.10
22469;DHT22;11401;50.792;4.352;2022-12-10T14:43:39;13.20;53.20
22469;DHT22;11401;50.792;4.352;2022-12-10T14:46:24;13.30;52.90
22469;DHT22;11401;50.792;4.352;2022-12-10T14:48:52;13.30;53.00
22469;DHT22;11401;50.792;4.352;2022-12-10T14:51:24;13.30;52.90
22469;DHT22;11401;50.792;4.352;2022-12-10T14:53:53;13.40;53.00
22469;DHT22;11401;50.792;4.352;2022-12-10T14:56:28;13.40;52.60
22469;DHT22;11401;50.792;4.352;2022-12-10T14:59:11;13.40;52.10
22469;DHT22;11401;50.792;4.352;2022-12-10T15:01:41;13.40;52.40
22469;DHT22;11401;50.792;4.352;2022-12-10T15:04:14;13.40;52.10
22469;DHT22;11401;50.792;4.352;2022-12-10T15:06:50;13.40;52.50
22469;DHT22;11401;50.792;4.352;2022-12-10T15:09:23;13.40;52.50
22469;DHT22;11401;50.792;4.352;2022-12-10T15:11:59;13.50;52.20
22469;DHT22;11401;50.792;4.352;2022-12-10T15:14:29;13.50;52.30
22469;DHT22;11401;50.792;4.352;2022-12-10T15:16:57;13.40;52.50
22469;DHT22;11401;50.792;4.352;2022-12-10T15:22:11;13.40;52.70
22469;DHT22;11401;50.792;4.352;2022-12-10T15:24:44;13.40;52.60
22469;DHT22;11401;50.792;4.352;2022-12-10T15:27:20;13.40;52.50
22469;DHT22;11401;50.792;4.352;2022-12-10T15:29:47;13.50;52.60
22469;DHT22;11401;50.792;4.352;2022-12-10T15:32:26;13.70;53.00
22469;DHT22;11401;50.792;4.352;2022-12-10T15:34:57;13.70;51.30
22469;DHT22;11401;50.792;4.352;2022-12-10T15:37:33;13.60;51.50
22469;DHT22;11401;50.792;4.352;2022-12-10T15:40:04;13.60;51.70
22469;DHT22;11401;50.792;4.352;2022-12-10T15:45:37;13.50;52.30
22469;DHT22;11401;50.792;4.352;2022-12-10T15:48:08;13.50;52.10
22469;DHT22;11401;50.792;4.352;2022-12-10T15:50:40;13.50;52.20
22469;DHT22;11401;50.792;4.352;2022-12-10T15:53:12;13.50;52.10
22469;DHT22;11401;50.792;4.352;2022-12-10T15:55:40;13.50;51.90
22469;DHT22;11401;50.792;4.352;2022-12-10T15:58:13;13.60;51.90
22469;DHT22;11401;50.792;4.352;2022-12-10T16:00:41;13.50;52.20
22469;DHT22;11401;50.792;4.352;2022-12-10T16:03:13;13.50;52.40
22469;DHT22;11401;50.792;4.352;2022-12-10T16:05:40;13.40;52.10
22469;DHT22;11401;50.792;4.352;2022-12-10T16:08:20;13.40;52.20
22469;DHT22;11401;50.792;4.352;2022-12-10T16:10:49;13.40;52.10
22469;DHT22;11401;50.792;4.352;2022-12-10T16:13:36;13.50;51.90
22469;DHT22;11401;50.792;4.352;2022-12-10T16:16:08;13.40;51.70
22469;DHT22;11401;50.792;4.352;2022-12-10T16:18:36;13.30;52.00
22469;DHT22;11401;50.792;4.352;2022-12-10T16:21:04;13.10;51.40
22469;DHT22;11401;50.792;4.352;2022-12-10T16:23:32;13.10;52.40
22469;DHT22;11401;50.792;4.352;2022-12-10T16:26:00;13.10;52.40
22469;DHT22;11401;50.792;4.352;2022-12-10T16:28:27;13.20;52.50
22469;DHT22;11401;50.792;4.352;2022-12-10T16:30:56;13.30;52.70
22469;DHT22;11401;50.792;4.352;2022-12-10T16:33:25;13.30;52.30
22469;DHT22;11401;50.792;4.352;2022-12-10T16:35:54;13.40;52.70
22469;DHT22;11401;50.792;4.352;2022-12-10T16:38:22;13.50;52.20
22469;DHT22;11401;50.792;4.352;2022-12-10T16:40:50;13.50;52.20
22469;DHT22;11401;50.792;4.352;2022-12-10T16:43:23;13.50;52.20
22469;DHT22;11401;50.792;4.352;2022-12-10T16:45:51;13.40;52.40
22469;DHT22;11401;50.792;4.352;2022-12-10T16:48:18;13.30;52.50
22469;DHT22;11401;50.792;4.352;2022-12-10T16:50:46;13.30;52.70
22469;DHT22;11401;50.792;4.352;2022-12-10T16:53:18;13.30;52.90
22469;DHT22;11401;50.792;4.352;2022-12-10T16:55:46;13.40;52.50
22469;DHT22;11401;50.792;4.352;2022-12-10T16:58:15;13.40;52.80
22469;DHT22;11401;50.792;4.352;2022-12-10T17:00:44;13.40;52.10
22469;DHT22;11401;50.792;4.352;2022-12-10T17:03:12;13.40;52.50
22469;DHT22;11401;50.792;4.352;2022-12-10T17:05:51;13.50;53.00
22469;DHT22;11401;50.792;4.352;2022-12-10T17:08:20;13.50;52.80
22469;DHT22;11401;50.792;4.352;2022-12-10T17:10:48;13.60;52.10
22469;DHT22;11401;50.792;4.352;2022-12-10T17:13:34;13.50;52.00
22469;DHT22;11401;50.792;4.352;2022-12-10T17:16:02;13.50;52.10
22469;DHT22;11401;50.792;4.352;2022-12-10T17:18:30;13.40;52.60
22469;DHT22;11401;50.792;4.352;2022-12-10T17:20:58;13.40;52.40
22469;DHT22;11401;50.792;4.352;2022-12-10T17:23:25;13.40;52.70
22469;DHT22;11401;50.792;4.352;2022-12-10T17:25:52;13.30;52.70
22469;DHT22;11401;50.792;4.352;2022-12-10T17:28:21;13.40;53.10
22469;DHT22;11401;50.792;4.352;2022-12-10T17:30:49;13.40;52.90
22469;DHT22;11401;50.792;4.352;2022-12-10T17:33:18;13.50;52.50
22469;DHT22;11401;50.792;4.352;2022-12-10T17:35:46;13.50;52.00
22469;DHT22;11401;50.792;4.352;2022-12-10T17:38:19;13.50;52.20
22469;DHT22;11401;50.792;4.352;2022-12-10T17:40:46;13.40;52.00
22469;DHT22;11401;50.792;4.352;2022-12-10T17:43:13;13.40;52.20
22469;DHT22;11401;50.792;4.352;2022-12-10T17:45:40;13.30;52.30
22469;DHT22;11401;50.792;4.352;2022-12-10T17:48:18;13.20;52.00
22469;DHT22;11401;50.792;4.352;2022-12-10T17:50:46;13.20;52.00
22469;DHT22;11401;50.792;4.352;2022-12-10T17:53:14;13.10;52.30
22469;DHT22;11401;50.792;4.352;2022-12-10T17:55:45;13.00;52.30
22469;DHT22;11401;50.792;4.352;2022-12-10T17:58:15;13.00;52.50
22469;DHT22;11401;50.792;4.352;2022-12-10T18:00:42;12.90;52.70